createdAt,value
2019-03-12T00:00:35.484Z,1.49
2019-03-12T00:01:35.397Z,1.50
2019-03-12T00:02:35.288Z,1.53
2019-03-12T00:03:35.177Z,1.54
2019-03-12T00:04:35.077Z,1.54
2019-03-12T00:05:34.972Z,1.49
2019-03-12T00:06:34.987Z,1.52
2019-03-12T00:07:34.765Z,1.57
2019-03-12T00:08:34.661Z,1.50
2019-03-12T00:09:34.560Z,1.47
2019-03-12T00:10:34.455Z,1.47
2019-03-12T00:11:34.368Z,1.52
2019-03-12T00:12:34.259Z,1.49
2019-03-12T00:13:34.150Z,1.53
2019-03-12T00:14:34.044Z,1.50
2019-03-12T00:15:33.948Z,1.44
2019-03-12T00:16:33.855Z,1.54
2019-03-12T00:17:33.736Z,1.54
2019-03-12T00:18:33.634Z,1.53
2019-03-12T00:19:33.535Z,1.53
2019-03-12T00:20:33.532Z,1.53
2019-03-12T00:21:33.342Z,1.50
2019-03-12T00:22:33.226Z,1.56
2019-03-12T00:23:33.123Z,1.53
2019-03-12T00:24:33.019Z,1.49
2019-03-12T00:25:32.916Z,1.49
2019-03-12T00:26:32.832Z,1.52
2019-03-12T00:27:32.709Z,1.49
2019-03-12T00:28:32.609Z,1.52
2019-03-12T00:29:32.506Z,1.52
2019-03-12T00:30:32.403Z,1.52
2019-03-12T00:31:32.318Z,1.53
2019-03-12T00:32:32.196Z,1.52
2019-03-12T00:33:32.094Z,1.42
2019-03-12T00:34:31.992Z,1.52
2019-03-12T00:35:31.904Z,1.53
2019-03-12T00:36:31.806Z,1.50
2019-03-12T00:37:31.685Z,1.47
2019-03-12T00:38:31.580Z,1.53
2019-03-12T00:39:31.480Z,1.50
2019-03-12T00:40:31.373Z,1.49
2019-03-12T00:41:31.288Z,1.49
2019-03-12T00:42:31.170Z,1.52
2019-03-12T00:43:31.067Z,1.46
2019-03-12T00:44:30.964Z,1.44
2019-03-12T00:45:30.865Z,1.44
2019-03-12T00:46:30.776Z,1.42
2019-03-12T00:47:30.653Z,1.42
2019-03-12T00:48:30.560Z,1.47
2019-03-12T00:49:30.452Z,1.38
2019-03-12T00:50:30.346Z,1.49
2019-03-12T00:51:30.265Z,1.38
2019-03-12T00:52:30.145Z,1.47
2019-03-12T00:53:30.040Z,1.47
2019-03-12T00:54:29.938Z,1.44
2019-03-12T00:55:29.835Z,1.43
2019-03-12T00:56:29.739Z,1.42
2019-03-12T00:57:29.646Z,1.42
2019-03-12T00:58:29.525Z,1.46
2019-03-12T00:59:29.428Z,1.47
2019-03-12T01:00:29.327Z,1.52
2019-03-12T01:01:29.224Z,1.46
2019-03-12T01:02:29.132Z,1.47
2019-03-12T01:03:29.013Z,1.52
2019-03-12T01:04:28.911Z,1.43
2019-03-12T01:05:28.811Z,1.47
2019-03-12T01:06:28.707Z,1.50
2019-03-12T01:07:28.618Z,1.39
2019-03-12T01:08:28.505Z,1.49
2019-03-12T01:09:28.396Z,1.43
2019-03-12T01:10:28.298Z,1.44
2019-03-12T01:11:28.192Z,1.49
2019-03-12T01:12:28.106Z,1.44
2019-03-12T01:13:27.984Z,1.43
2019-03-12T01:14:27.879Z,1.43
2019-03-12T01:15:27.782Z,1.46
2019-03-12T01:16:27.677Z,1.47
2019-03-12T01:17:27.595Z,1.47
2019-03-12T01:18:27.470Z,1.50
2019-03-12T01:19:27.367Z,1.47
2019-03-12T01:20:27.283Z,1.39
2019-03-12T01:21:27.164Z,1.50
2019-03-12T01:22:27.075Z,1.47
2019-03-12T01:23:27.019Z,1.38
2019-03-12T01:24:26.856Z,1.44
2019-03-12T01:25:26.754Z,1.38
2019-03-12T01:26:26.652Z,1.36
2019-03-12T01:27:26.563Z,1.46
2019-03-12T01:28:26.443Z,1.38
2019-03-12T01:29:26.341Z,1.36
2019-03-12T01:30:26.238Z,1.38
2019-03-12T01:31:26.135Z,1.36
2019-03-12T01:32:26.051Z,1.35
2019-03-12T01:33:25.933Z,1.29
2019-03-12T01:34:25.829Z,1.35
2019-03-12T01:35:25.730Z,1.35
2019-03-12T01:36:25.626Z,1.32
2019-03-12T01:37:25.535Z,1.35
2019-03-12T01:38:25.418Z,1.36
2019-03-12T01:39:25.312Z,1.32
2019-03-12T01:40:25.213Z,1.29
2019-03-12T01:41:25.111Z,1.36
2019-03-12T01:42:25.023Z,1.32
2019-03-12T01:43:25.007Z,1.36
2019-03-12T01:44:24.801Z,1.34
2019-03-12T01:45:24.696Z,1.35
2019-03-12T01:46:24.592Z,1.31
2019-03-12T01:47:24.506Z,1.28
2019-03-12T01:48:24.386Z,1.29
2019-03-12T01:49:24.283Z,1.29
2019-03-12T01:50:24.181Z,1.31
2019-03-12T01:51:24.081Z,1.29
2019-03-12T01:52:23.993Z,1.25
2019-03-12T01:53:23.877Z,1.25
2019-03-12T01:54:23.770Z,1.26
2019-03-12T01:55:23.666Z,1.28
2019-03-12T01:56:23.565Z,1.26
2019-03-12T01:57:23.577Z,1.28
2019-03-12T01:58:23.358Z,1.25
2019-03-12T01:59:23.255Z,1.29
2019-03-12T02:00:23.156Z,1.24
2019-03-12T02:01:23.051Z,1.26
2019-03-12T02:02:22.966Z,1.25
2019-03-12T02:03:22.849Z,1.28
2019-03-12T02:04:22.850Z,1.25
2019-03-12T02:05:22.642Z,1.26
2019-03-12T02:06:22.536Z,1.25
2019-03-12T02:07:22.452Z,1.20
2019-03-12T02:08:22.393Z,1.29
2019-03-12T02:09:22.230Z,1.31
2019-03-12T02:10:22.125Z,1.28
2019-03-12T02:11:22.129Z,1.25
2019-03-12T02:12:21.936Z,1.26
2019-03-12T02:13:21.816Z,1.25
2019-03-12T02:14:21.718Z,1.25
2019-03-12T02:15:21.610Z,1.26
2019-03-12T02:16:21.506Z,1.28
2019-03-12T02:17:21.422Z,1.29
2019-03-12T02:18:21.411Z,1.26
2019-03-12T02:19:21.199Z,1.31
2019-03-12T02:20:21.099Z,1.34
2019-03-12T02:21:20.995Z,1.29
2019-03-12T02:22:20.908Z,1.35
2019-03-12T02:23:20.791Z,1.31
2019-03-12T02:24:20.683Z,1.35
2019-03-12T02:25:20.711Z,1.31
2019-03-12T02:26:20.490Z,1.31
2019-03-12T02:27:20.394Z,1.28
2019-03-12T02:28:20.277Z,1.38
2019-03-12T02:29:20.170Z,1.36
2019-03-12T02:30:20.071Z,1.38
2019-03-12T02:31:19.971Z,1.42
2019-03-12T02:32:19.997Z,1.42
2019-03-12T02:33:19.762Z,1.38
2019-03-12T02:34:19.657Z,1.42
2019-03-12T02:35:19.556Z,1.36
2019-03-12T02:36:19.457Z,1.31
2019-03-12T02:37:19.395Z,1.39
2019-03-12T02:38:19.248Z,1.43
2019-03-12T02:39:19.255Z,1.43
2019-03-12T02:40:19.040Z,1.39
2019-03-12T02:41:18.938Z,1.39
2019-03-12T02:42:18.840Z,1.34
2019-03-12T02:43:18.752Z,1.36
2019-03-12T02:44:18.630Z,1.36
2019-03-12T02:45:18.530Z,1.36
2019-03-12T02:46:18.533Z,1.38
2019-03-12T02:47:18.437Z,1.36
2019-03-12T02:48:18.238Z,1.36
2019-03-12T02:49:18.116Z,1.43
2019-03-12T02:50:18.017Z,1.32
2019-03-12T02:51:17.927Z,1.38
2019-03-12T02:52:17.813Z,1.29
2019-03-12T02:53:17.840Z,1.38
2019-03-12T02:54:17.602Z,1.39
2019-03-12T02:55:17.504Z,1.39
2019-03-12T02:56:17.401Z,1.39
2019-03-12T02:57:17.300Z,1.38
2019-03-12T02:58:17.224Z,1.32
2019-03-12T02:59:17.091Z,1.39
2019-03-12T03:00:16.987Z,1.39
2019-03-12T03:01:16.888Z,1.35
2019-03-12T03:02:16.791Z,1.36
2019-03-12T03:03:16.709Z,1.38
2019-03-12T03:04:16.594Z,1.43
2019-03-12T03:05:16.480Z,1.32
2019-03-12T03:06:16.482Z,1.39
2019-03-12T03:07:16.266Z,1.34
2019-03-12T03:08:16.179Z,1.39
2019-03-12T03:09:16.067Z,1.36
2019-03-12T03:10:15.961Z,1.26
2019-03-12T03:11:15.857Z,1.34
2019-03-12T03:12:15.754Z,1.32
2019-03-12T03:13:15.666Z,1.38
2019-03-12T03:14:15.562Z,1.39
2019-03-12T03:15:15.449Z,1.44
2019-03-12T03:16:15.342Z,1.36
2019-03-12T03:17:15.240Z,1.39
2019-03-12T03:18:15.171Z,1.39
2019-03-12T03:19:15.036Z,1.32
2019-03-12T03:20:14.929Z,1.28
2019-03-12T03:21:14.830Z,1.35
2019-03-12T03:22:14.727Z,1.32
2019-03-12T03:23:14.641Z,1.28
2019-03-12T03:24:14.537Z,1.25
2019-03-12T03:25:14.421Z,1.35
2019-03-12T03:26:14.316Z,1.36
2019-03-12T03:27:14.213Z,1.26
2019-03-12T03:28:14.127Z,1.31
2019-03-12T03:29:14.007Z,1.25
2019-03-12T03:30:13.951Z,1.26
2019-03-12T03:31:13.803Z,1.28
2019-03-12T03:32:13.700Z,1.29
2019-03-12T03:33:13.780Z,1.28
2019-03-12T03:34:13.530Z,1.32
2019-03-12T03:35:13.393Z,1.32
2019-03-12T03:36:13.292Z,1.32
2019-03-12T03:37:13.189Z,1.36
2019-03-12T03:38:13.112Z,1.38
2019-03-12T03:39:12.983Z,1.38
2019-03-12T03:40:12.884Z,1.29
2019-03-12T03:41:12.775Z,1.34
2019-03-12T03:42:12.678Z,1.35
2019-03-12T03:43:12.586Z,1.36
2019-03-12T03:44:12.469Z,1.39
2019-03-12T03:45:12.367Z,1.35
2019-03-12T03:46:12.284Z,1.36
2019-03-12T03:47:12.163Z,1.43
2019-03-12T03:48:12.073Z,1.35
2019-03-12T03:49:11.955Z,1.35
2019-03-12T03:50:11.856Z,1.34
2019-03-12T03:51:11.753Z,1.29
2019-03-12T03:52:11.645Z,1.25
2019-03-12T03:53:11.562Z,1.26
2019-03-12T03:54:11.443Z,1.26
2019-03-12T03:55:11.343Z,1.26
2019-03-12T03:56:11.236Z,1.25
2019-03-12T03:57:11.137Z,1.26
2019-03-12T03:58:11.056Z,1.26
2019-03-12T03:59:10.932Z,1.28
2019-03-12T04:00:10.840Z,1.29
2019-03-12T04:01:10.722Z,1.31
2019-03-12T04:02:10.757Z,1.28
2019-03-12T04:03:10.608Z,1.28
2019-03-12T04:04:10.432Z,1.31
2019-03-12T04:05:10.311Z,1.21
2019-03-12T04:06:10.213Z,1.28
2019-03-12T04:07:10.114Z,1.28
2019-03-12T04:08:10.022Z,1.31
2019-03-12T04:09:09.903Z,1.31
2019-03-12T04:10:09.799Z,1.25
2019-03-12T04:11:09.696Z,1.32
2019-03-12T04:12:09.597Z,1.24
2019-03-12T04:13:09.520Z,1.31
2019-03-12T04:14:09.392Z,1.26
2019-03-12T04:15:09.288Z,1.26
2019-03-12T04:16:09.182Z,1.28
2019-03-12T04:17:09.102Z,1.29
2019-03-12T04:18:08.999Z,1.31
2019-03-12T04:19:08.874Z,1.26
2019-03-12T04:20:08.781Z,1.28
2019-03-12T04:21:08.670Z,1.29
2019-03-12T04:22:08.566Z,1.29
2019-03-12T04:23:08.482Z,1.25
2019-03-12T04:24:08.365Z,1.29
2019-03-12T04:25:08.259Z,1.26
2019-03-12T04:26:08.161Z,1.28
2019-03-12T04:27:08.053Z,1.29
2019-03-12T04:28:07.958Z,1.26
2019-03-12T04:29:07.870Z,1.31
2019-03-12T04:30:07.747Z,1.29
2019-03-12T04:31:07.643Z,1.28
2019-03-12T04:32:07.542Z,1.28
2019-03-12T04:33:07.443Z,1.25
2019-03-12T04:34:07.355Z,1.28
2019-03-12T04:35:07.342Z,1.20
2019-03-12T04:36:07.137Z,1.26
2019-03-12T04:37:07.032Z,1.26
2019-03-12T04:38:07.367Z,1.20
2019-03-12T04:39:06.841Z,1.28
2019-03-12T04:40:06.721Z,1.21
2019-03-12T04:41:06.616Z,1.25
2019-03-12T04:42:06.516Z,1.24
2019-03-12T04:43:06.414Z,1.24
2019-03-12T04:44:06.327Z,1.28
2019-03-12T04:45:06.485Z,1.26
2019-03-12T04:46:06.112Z,1.29
2019-03-12T04:47:06.004Z,1.28
2019-03-12T04:48:05.903Z,1.34
2019-03-12T04:49:05.817Z,1.20
2019-03-12T04:50:05.696Z,1.24
2019-03-12T04:51:05.592Z,1.21
2019-03-12T04:52:05.592Z,1.28
2019-03-12T04:53:05.387Z,1.29
2019-03-12T04:54:05.304Z,1.21
2019-03-12T04:55:05.181Z,1.25
2019-03-12T04:56:05.079Z,1.29
2019-03-12T04:57:04.994Z,1.29
2019-03-12T04:58:04.875Z,1.16
2019-03-12T04:59:04.897Z,1.25
2019-03-12T05:00:04.669Z,1.26
2019-03-12T05:01:04.568Z,1.25
2019-03-12T05:02:04.465Z,1.18
2019-03-12T05:03:04.364Z,1.20
2019-03-12T05:04:04.275Z,1.24
2019-03-12T05:05:04.155Z,1.16
2019-03-12T05:06:04.158Z,1.25
2019-03-12T05:07:03.950Z,1.16
2019-03-12T05:08:03.850Z,1.24
2019-03-12T05:09:03.761Z,1.18
2019-03-12T05:10:03.642Z,1.11
2019-03-12T05:11:03.550Z,1.10
2019-03-12T05:12:03.448Z,1.17
2019-03-12T05:13:03.452Z,1.11
2019-03-12T05:14:03.250Z,1.06
2019-03-12T05:15:03.129Z,1.04
2019-03-12T05:16:03.035Z,1.10
2019-03-12T05:17:02.924Z,1.10
2019-03-12T05:18:02.823Z,1.14
2019-03-12T05:19:02.738Z,1.11
2019-03-12T05:20:02.726Z,1.24
2019-03-12T05:21:02.513Z,1.14
2019-03-12T05:22:02.413Z,1.17
2019-03-12T05:23:02.309Z,1.08
2019-03-12T05:24:02.219Z,1.10
2019-03-12T05:25:02.101Z,1.11
2019-03-12T05:26:01.998Z,1.04
2019-03-12T05:27:02.003Z,1.11
2019-03-12T05:28:01.795Z,1.07
2019-03-12T05:29:01.728Z,1.07
2019-03-12T05:30:01.590Z,1.06
2019-03-12T05:31:01.487Z,1.16
2019-03-12T05:32:01.381Z,1.11
2019-03-12T05:33:01.282Z,1.06
2019-03-12T05:34:01.302Z,1.06
2019-03-12T05:35:01.078Z,1.07
2019-03-12T05:36:00.972Z,1.08
2019-03-12T05:37:00.871Z,1.04
2019-03-12T05:38:00.765Z,1.14
2019-03-12T05:39:00.682Z,1.14
2019-03-12T05:40:00.558Z,1.07
2019-03-12T05:41:00.592Z,1.11
2019-03-12T05:42:00.359Z,1.08
2019-03-12T05:43:00.254Z,1.00
2019-03-12T05:44:00.168Z,1.11
2019-03-12T05:45:00.050Z,1.02
2019-03-12T05:45:59.947Z,1.04
2019-03-12T05:46:59.840Z,1.08
2019-03-12T05:47:59.847Z,1.17
2019-03-12T05:48:59.656Z,1.11
2019-03-12T05:49:59.535Z,1.06
2019-03-12T05:50:59.427Z,1.17
2019-03-12T05:51:59.329Z,1.04
2019-03-12T05:52:59.224Z,1.10
2019-03-12T05:53:59.143Z,1.13
2019-03-12T05:54:59.019Z,1.16
2019-03-12T05:55:58.914Z,1.18
2019-03-12T05:56:58.813Z,1.16
2019-03-12T05:57:58.709Z,1.25
2019-03-12T05:58:58.623Z,1.17
2019-03-12T05:59:58.504Z,1.29
2019-03-12T06:00:58.402Z,1.26
2019-03-12T06:01:58.300Z,1.20
2019-03-12T06:02:58.197Z,1.13
2019-03-12T06:03:58.109Z,1.24
2019-03-12T06:04:57.993Z,1.14
2019-03-12T06:05:57.892Z,1.25
2019-03-12T06:06:57.785Z,1.24
2019-03-12T06:07:57.684Z,1.18
2019-03-12T06:08:58.777Z,1.29
2019-03-12T06:09:57.496Z,1.26
2019-03-12T06:10:57.377Z,1.26
2019-03-12T06:11:57.275Z,1.29
2019-03-12T06:12:57.168Z,1.24
2019-03-12T06:13:57.086Z,1.28
2019-03-12T06:14:56.967Z,1.29
2019-03-12T06:15:56.861Z,1.29
2019-03-12T06:16:56.759Z,1.26
2019-03-12T06:17:56.656Z,1.28
2019-03-12T06:18:56.564Z,1.26
2019-03-12T06:19:56.474Z,1.26
2019-03-12T06:20:56.348Z,1.34
2019-03-12T06:21:56.247Z,1.34
2019-03-12T06:22:56.146Z,1.34
2019-03-12T06:23:56.043Z,1.43
2019-03-12T06:24:55.957Z,1.34
2019-03-12T06:25:55.845Z,1.34
2019-03-12T06:26:55.734Z,1.38
2019-03-12T06:27:55.632Z,1.38
2019-03-12T06:28:55.529Z,1.47
2019-03-12T06:29:55.444Z,1.49
2019-03-12T06:30:55.323Z,1.47
2019-03-12T06:31:55.222Z,1.52
2019-03-12T06:32:55.121Z,1.47
2019-03-12T06:33:55.018Z,1.42
2019-03-12T06:34:54.934Z,1.43
2019-03-12T06:35:54.809Z,1.43
2019-03-12T06:36:54.708Z,1.44
2019-03-12T06:37:54.607Z,1.36
2019-03-12T06:38:54.507Z,1.39
2019-03-12T06:39:54.416Z,1.50
2019-03-12T06:40:54.298Z,1.47
2019-03-12T06:41:54.196Z,1.46
2019-03-12T06:42:54.094Z,1.44
2019-03-12T06:43:53.993Z,1.39
2019-03-12T06:44:53.909Z,1.52
2019-03-12T06:45:53.789Z,1.60
2019-03-12T06:46:53.686Z,1.57
2019-03-12T06:47:53.583Z,1.60
2019-03-12T06:48:53.482Z,1.65
2019-03-12T06:49:53.395Z,1.65
2019-03-12T06:50:53.279Z,1.72
2019-03-12T06:51:53.172Z,1.75
2019-03-12T06:52:53.072Z,1.82
2019-03-12T06:53:52.973Z,1.85
2019-03-12T06:54:52.885Z,1.81
2019-03-12T06:55:52.762Z,1.79
2019-03-12T06:56:52.660Z,1.86
2019-03-12T06:57:52.558Z,1.89
2019-03-12T06:58:52.456Z,1.86
2019-03-12T06:59:52.375Z,1.82
2019-03-12T07:00:52.251Z,1.88
2019-03-12T07:01:52.152Z,1.86
2019-03-12T07:02:52.050Z,1.86
2019-03-12T07:03:51.949Z,1.85
2019-03-12T07:04:51.861Z,1.81
2019-03-12T07:05:51.743Z,1.90
2019-03-12T07:06:51.642Z,1.93
2019-03-12T07:07:51.537Z,1.95
2019-03-12T07:08:51.439Z,2.14
2019-03-12T07:09:51.353Z,2.01
2019-03-12T07:10:51.340Z,2.08
2019-03-12T07:11:51.132Z,2.09
2019-03-12T07:12:51.031Z,2.11
2019-03-12T07:13:50.930Z,2.09
2019-03-12T07:14:50.839Z,2.20
2019-03-12T07:15:50.723Z,2.26
2019-03-12T07:16:50.620Z,2.29
2019-03-12T07:17:50.632Z,2.32
2019-03-12T07:18:50.417Z,2.23
2019-03-12T07:19:50.353Z,2.37
2019-03-12T07:20:50.215Z,2.32
2019-03-12T07:21:50.125Z,2.38
2019-03-12T07:22:50.012Z,2.36
2019-03-12T07:23:49.909Z,2.38
2019-03-12T07:24:49.918Z,2.50
2019-03-12T07:25:51.043Z,2.55
2019-03-12T07:26:49.608Z,2.65
2019-03-12T07:27:49.500Z,2.69
2019-03-12T07:28:50.726Z,2.63
2019-03-12T07:29:49.299Z,2.61
2019-03-12T07:30:49.217Z,2.65
2019-03-12T07:31:49.220Z,2.61
2019-03-12T07:32:48.994Z,2.62
2019-03-12T07:33:48.892Z,2.58
2019-03-12T07:34:48.797Z,2.62
2019-03-12T07:35:48.705Z,2.74
2019-03-12T07:36:48.587Z,2.76
2019-03-12T07:37:48.486Z,2.73
2019-03-12T07:38:48.496Z,2.80
2019-03-12T07:39:48.283Z,2.99
2019-03-12T07:40:48.205Z,3.20
2019-03-12T07:41:48.084Z,3.26
2019-03-12T07:42:47.979Z,3.53
2019-03-12T07:43:47.880Z,3.45
2019-03-12T07:44:47.777Z,3.45
2019-03-12T07:45:47.801Z,3.33
2019-03-12T07:46:47.579Z,3.62
2019-03-12T07:47:47.475Z,3.80
2019-03-12T07:48:47.375Z,3.75
2019-03-12T07:49:47.289Z,3.53
2019-03-12T07:50:47.189Z,3.34
2019-03-12T07:51:47.073Z,3.28
2019-03-12T07:52:47.081Z,3.25
2019-03-12T07:53:58.855Z,3.19
2019-03-12T07:54:46.771Z,2.87
2019-03-12T07:55:46.708Z,2.87
2019-03-12T07:56:46.604Z,2.79
2019-03-12T07:57:46.467Z,2.74
2019-03-12T07:58:46.366Z,2.79
2019-03-12T07:59:46.388Z,2.79
2019-03-12T08:00:46.181Z,2.73
2019-03-12T08:01:46.065Z,2.87
2019-03-12T08:02:46.025Z,3.01
2019-03-12T08:03:45.864Z,3.02
2019-03-12T08:04:45.766Z,2.90
2019-03-12T08:05:45.676Z,2.90
2019-03-12T08:06:45.683Z,2.92
2019-03-12T08:07:45.462Z,2.86
2019-03-12T08:08:45.360Z,2.90
2019-03-12T08:09:45.256Z,2.90
2019-03-12T08:10:45.178Z,2.95
2019-03-12T08:11:45.056Z,2.94
2019-03-12T08:12:44.953Z,2.90
2019-03-12T08:13:44.954Z,2.89
2019-03-12T08:14:44.752Z,3.05
2019-03-12T08:15:44.667Z,3.02
2019-03-12T08:16:44.557Z,2.99
2019-03-12T08:17:44.449Z,3.13
2019-03-12T08:18:44.366Z,3.07
2019-03-12T08:19:44.248Z,3.13
2019-03-12T08:20:44.269Z,3.15
2019-03-12T08:21:44.128Z,3.01
2019-03-12T08:22:43.944Z,2.89
2019-03-12T08:23:43.844Z,2.89
2019-03-12T08:24:43.743Z,2.95
2019-03-12T08:25:44.047Z,3.04
2019-03-12T08:26:43.650Z,3.02
2019-03-12T08:27:43.447Z,3.05
2019-03-12T08:28:43.340Z,3.01
2019-03-12T08:29:43.241Z,3.05
2019-03-12T08:30:43.156Z,3.20
2019-03-12T08:31:43.039Z,3.05
2019-03-12T08:32:42.942Z,3.13
2019-03-12T08:33:50.412Z,3.20
2019-03-12T08:34:42.839Z,3.23
2019-03-12T08:35:42.649Z,3.30
2019-03-12T08:36:42.536Z,3.30
2019-03-12T08:37:42.435Z,3.19
2019-03-12T08:38:42.332Z,3.22
2019-03-12T08:39:42.231Z,3.34
2019-03-12T08:40:52.036Z,3.22
2019-03-12T08:41:42.045Z,3.16
2019-03-12T08:42:54.069Z,3.16
2019-03-12T08:43:41.830Z,3.22
2019-03-12T08:44:42.614Z,3.15
2019-03-12T08:45:45.434Z,3.16
2019-03-12T08:46:41.541Z,3.20
2019-03-12T08:47:41.424Z,3.41
2019-03-12T08:48:41.323Z,3.35
2019-03-12T08:49:41.222Z,3.54
2019-03-12T08:50:41.121Z,3.54
2019-03-12T08:51:41.040Z,3.78
2019-03-12T08:52:40.933Z,3.92
2019-03-12T08:53:40.820Z,4.10
2019-03-12T08:54:53.490Z,4.25
2019-03-12T08:55:40.618Z,3.96
2019-03-12T08:56:40.541Z,3.95
2019-03-12T08:57:40.422Z,3.60
2019-03-12T08:58:40.319Z,3.57
2019-03-12T08:59:40.218Z,3.49
2019-03-12T09:00:40.120Z,3.45
2019-03-12T09:01:40.040Z,3.45
2019-03-12T09:02:39.918Z,3.45
2019-03-12T09:03:39.818Z,3.60
2019-03-12T09:04:39.714Z,3.78
2019-03-12T09:05:39.636Z,3.93
2019-03-12T09:06:39.531Z,3.96
2019-03-12T09:07:39.420Z,4.34
2019-03-12T09:08:39.313Z,4.64
2019-03-12T09:09:39.215Z,4.91
2019-03-12T09:10:39.120Z,5.04
2019-03-12T09:11:39.032Z,5.81
2019-03-12T09:12:38.914Z,5.60
2019-03-12T09:13:38.813Z,5.29
2019-03-12T09:14:38.713Z,5.26
2019-03-12T09:15:38.618Z,4.99
2019-03-12T09:16:38.832Z,4.68
2019-03-12T09:17:38.436Z,4.35
2019-03-12T09:18:38.320Z,3.95
2019-03-12T09:19:38.218Z,3.92
2019-03-12T09:20:38.116Z,3.75
2019-03-12T09:21:38.023Z,3.92
2019-03-12T09:22:37.936Z,3.95
2019-03-12T09:23:37.822Z,4.21
2019-03-12T09:24:37.720Z,4.16
2019-03-12T09:25:37.629Z,4.61
2019-03-12T09:26:37.524Z,4.67
2019-03-12T09:27:37.440Z,4.67
2019-03-12T09:28:37.329Z,4.59
2019-03-12T09:29:37.225Z,4.68
2019-03-12T09:30:39.546Z,4.61
2019-03-12T09:31:37.025Z,4.54
2019-03-12T09:32:36.942Z,4.99
2019-03-12T09:33:36.827Z,5.67
2019-03-12T09:34:36.729Z,5.63
2019-03-12T09:35:36.628Z,5.67
2019-03-12T09:36:36.527Z,6.25
2019-03-12T09:37:36.449Z,6.93
2019-03-12T09:38:36.333Z,7.39
2019-03-12T09:39:36.239Z,7.47
2019-03-12T09:40:36.136Z,7.60
2019-03-12T09:41:36.040Z,8.49
2019-03-12T09:42:35.957Z,8.68
2019-03-12T09:43:35.844Z,8.39
2019-03-12T09:44:35.743Z,8.31
2019-03-12T09:45:35.648Z,8.09
2019-03-12T09:46:35.559Z,8.64
2019-03-12T09:47:35.473Z,8.60
2019-03-12T09:48:35.361Z,8.82
2019-03-12T09:49:35.266Z,8.68
2019-03-12T09:50:35.167Z,8.43
2019-03-12T09:51:35.114Z,8.21
2019-03-12T09:52:34.980Z,7.99
2019-03-12T09:53:34.901Z,7.29
2019-03-12T09:54:34.787Z,6.87
2019-03-12T09:55:34.692Z,6.17
2019-03-12T09:56:34.600Z,6.14
2019-03-12T09:57:34.504Z,6.01
2019-03-12T09:58:34.528Z,5.87
2019-03-12T09:59:34.391Z,6.05
2019-03-12T10:00:34.217Z,5.78
2019-03-12T10:01:34.121Z,5.83
2019-03-12T10:02:34.027Z,5.66
2019-03-12T10:03:33.961Z,5.66
2019-03-12T10:04:33.838Z,5.67
2019-03-12T10:05:33.737Z,6.46
2019-03-12T10:06:33.643Z,6.24
2019-03-12T10:07:33.547Z,5.96
2019-03-12T10:08:33.466Z,5.93
2019-03-12T10:09:33.353Z,6.69
2019-03-12T10:10:33.263Z,6.94
2019-03-12T10:11:33.164Z,8.04
2019-03-12T10:12:33.175Z,7.96
2019-03-12T10:13:32.988Z,8.85
2019-03-12T10:14:32.877Z,8.09
2019-03-12T10:15:32.782Z,7.82
2019-03-12T10:16:32.682Z,8.42
2019-03-12T10:17:32.590Z,8.47
2019-03-12T10:18:32.510Z,9.27
2019-03-12T10:19:32.506Z,9.45
2019-03-12T10:20:32.303Z,9.38
2019-03-12T10:21:32.213Z,9.59
2019-03-12T10:22:32.116Z,9.12
2019-03-12T10:23:32.024Z,8.63
2019-03-12T10:24:31.946Z,8.18
2019-03-12T10:25:31.840Z,8.22
2019-03-12T10:26:31.846Z,7.69
2019-03-12T10:27:31.645Z,7.07
2019-03-12T10:28:31.560Z,7.52
2019-03-12T10:29:31.474Z,6.87
2019-03-12T10:30:31.365Z,6.58
2019-03-12T10:31:31.268Z,6.50
2019-03-12T10:32:31.173Z,6.19
2019-03-12T10:33:31.204Z,6.57
2019-03-12T10:34:31.001Z,7.70
2019-03-12T10:35:30.892Z,7.60
2019-03-12T10:36:31.091Z,7.66
2019-03-12T10:37:30.709Z,7.52
2019-03-12T10:38:30.611Z,7.36
2019-03-12T10:39:30.531Z,7.58
2019-03-12T10:40:30.545Z,8.57
2019-03-12T10:41:30.328Z,7.50
2019-03-12T10:42:30.229Z,6.54
2019-03-12T10:43:30.135Z,6.03
2019-03-12T10:44:30.060Z,6.40
2019-03-12T10:45:29.943Z,5.92
2019-03-12T10:46:29.850Z,5.62
2019-03-12T10:47:29.860Z,5.58
2019-03-12T10:48:29.658Z,5.45
2019-03-12T10:49:37.441Z,5.65
2019-03-12T10:50:29.471Z,5.73
2019-03-12T10:51:29.373Z,5.47
2019-03-12T10:52:29.276Z,5.30
2019-03-12T10:53:29.196Z,5.35
2019-03-12T10:54:29.239Z,5.20
2019-03-12T10:55:28.988Z,5.19
2019-03-12T10:56:28.891Z,5.12
2019-03-12T10:57:28.796Z,5.09
2019-03-12T10:58:28.703Z,5.23
2019-03-12T10:59:28.642Z,5.20
2019-03-12T11:00:28.511Z,6.27
2019-03-12T11:01:28.513Z,6.38
2019-03-12T11:02:28.315Z,6.86
2019-03-12T11:03:28.218Z,7.66
2019-03-12T11:04:28.121Z,7.54
2019-03-12T11:05:28.040Z,7.60
2019-03-12T11:06:27.926Z,8.10
2019-03-12T11:07:27.830Z,8.63
2019-03-12T11:08:27.841Z,9.19
2019-03-12T11:09:27.641Z,9.55
2019-03-12T11:10:27.561Z,9.81
2019-03-12T11:11:27.449Z,10.52
2019-03-12T11:12:27.374Z,10.11
2019-03-12T11:13:27.257Z,10.95
2019-03-12T11:14:27.162Z,11.17
2019-03-12T11:15:27.190Z,11.66
2019-03-12T11:16:26.972Z,10.55
2019-03-12T11:17:26.879Z,9.30
2019-03-12T11:18:26.786Z,8.78
2019-03-12T11:19:26.703Z,7.41
2019-03-12T11:20:26.619Z,6.97
2019-03-12T11:21:26.509Z,6.86
2019-03-12T11:22:26.521Z,6.73
2019-03-12T11:23:26.319Z,7.41
2019-03-12T11:24:26.222Z,8.36
2019-03-12T11:25:27.993Z,8.71
2019-03-12T11:26:26.040Z,9.68
2019-03-12T11:27:25.944Z,10.09
2019-03-12T11:28:26.826Z,10.43
2019-03-12T11:29:25.769Z,10.91
2019-03-12T11:30:25.677Z,10.75
2019-03-12T11:31:25.568Z,9.26
2019-03-12T11:32:25.474Z,8.71
2019-03-12T11:33:25.395Z,7.63
2019-03-12T11:34:25.286Z,7.18
2019-03-12T11:35:25.209Z,8.07
2019-03-12T11:36:25.100Z,8.29
2019-03-12T11:37:25.007Z,8.65
2019-03-12T11:38:24.922Z,9.17
2019-03-12T11:39:24.823Z,9.58
2019-03-12T11:40:25.272Z,9.17
2019-03-12T11:41:24.635Z,8.68
2019-03-12T11:42:24.554Z,8.68
2019-03-12T11:43:24.459Z,8.94
2019-03-12T11:44:24.361Z,9.19
2019-03-12T11:45:35.487Z,8.64
2019-03-12T11:46:24.194Z,7.91
2019-03-12T11:47:24.126Z,7.67
2019-03-12T11:48:23.980Z,7.48
2019-03-12T11:49:23.899Z,7.84
2019-03-12T11:50:23.887Z,7.77
2019-03-12T11:51:23.718Z,7.69
2019-03-12T11:52:23.607Z,7.14
2019-03-12T11:53:23.514Z,7.23
2019-03-12T11:54:23.424Z,7.07
2019-03-12T11:55:23.323Z,7.95
2019-03-12T11:56:23.261Z,7.89
2019-03-12T11:57:23.143Z,8.09
2019-03-12T11:58:23.040Z,7.96
2019-03-12T11:59:22.950Z,7.51
2019-03-12T12:00:22.927Z,7.33
2019-03-12T12:01:22.778Z,7.00
2019-03-12T12:02:22.666Z,6.90
2019-03-12T12:03:22.572Z,6.79
2019-03-12T12:04:22.479Z,6.83
2019-03-12T12:05:22.379Z,7.07
2019-03-12T12:06:22.621Z,7.01
2019-03-12T12:07:22.200Z,7.09
2019-03-12T12:08:22.448Z,7.81
2019-03-12T12:09:22.061Z,8.42
2019-03-12T12:10:21.904Z,7.79
2019-03-12T12:11:21.826Z,7.52
2019-03-12T12:12:21.730Z,7.96
2019-03-12T12:13:21.618Z,7.88
2019-03-12T12:14:21.523Z,7.47
2019-03-12T12:15:21.429Z,8.46
2019-03-12T12:16:21.351Z,7.60
2019-03-12T12:17:21.240Z,7.39
2019-03-12T12:18:21.151Z,7.30
2019-03-12T12:19:21.048Z,7.18
2019-03-12T12:20:29.603Z,6.89
2019-03-12T12:21:20.876Z,6.78
2019-03-12T12:22:20.812Z,6.78
2019-03-12T12:23:20.666Z,6.82
2019-03-12T12:24:20.571Z,6.81
2019-03-12T12:25:20.475Z,6.89
2019-03-12T12:26:20.400Z,6.97
2019-03-12T12:27:20.285Z,6.99
2019-03-12T12:28:20.189Z,6.83
2019-03-12T12:29:20.095Z,6.90
2019-03-12T12:30:19.999Z,6.90
2019-03-12T12:31:20.023Z,8.02
2019-03-12T12:32:19.808Z,8.68
2019-03-12T12:33:19.710Z,9.58
2019-03-12T12:34:19.614Z,9.98
2019-03-12T12:35:19.518Z,10.18
2019-03-12T12:36:19.441Z,9.23
2019-03-12T12:37:19.329Z,9.70
2019-03-12T12:38:19.266Z,10.13
2019-03-12T12:39:19.140Z,10.75
2019-03-12T12:40:19.048Z,10.99
2019-03-12T12:41:18.966Z,11.19
2019-03-12T12:42:18.855Z,11.44
2019-03-12T12:43:18.768Z,11.19
2019-03-12T12:44:18.671Z,11.38
2019-03-12T12:45:18.679Z,11.17
2019-03-12T12:46:18.499Z,11.26
2019-03-12T12:47:18.390Z,10.55
2019-03-12T12:48:18.296Z,9.16
2019-03-12T12:49:18.202Z,8.45
2019-03-12T12:50:18.112Z,9.22
2019-03-12T12:51:18.034Z,9.50
2019-03-12T12:52:18.034Z,8.54
2019-03-12T12:53:17.833Z,8.09
2019-03-12T12:54:17.741Z,8.80
2019-03-12T12:55:17.706Z,8.65
2019-03-12T12:56:17.565Z,8.00
2019-03-12T12:57:17.477Z,8.29
2019-03-12T12:58:17.369Z,7.52
2019-03-12T12:59:17.381Z,7.86
2019-03-12T13:00:17.182Z,7.54
2019-03-12T13:01:17.091Z,7.47
2019-03-12T13:02:17.008Z,7.66
2019-03-12T13:03:16.908Z,7.50
2019-03-12T13:04:16.804Z,7.33
2019-03-12T13:05:16.711Z,7.05
2019-03-12T13:06:16.737Z,7.52
2019-03-12T13:07:16.539Z,7.84
2019-03-12T13:08:16.426Z,7.47
2019-03-12T13:09:16.332Z,7.71
2019-03-12T13:10:16.237Z,7.18
2019-03-12T13:11:16.150Z,6.90
2019-03-12T13:12:16.061Z,6.61
2019-03-12T13:13:16.078Z,6.53
2019-03-12T13:14:15.867Z,6.63
2019-03-12T13:15:15.759Z,6.63
2019-03-12T13:16:24.924Z,6.72